ANA8476 RKSI-RJAA
Flight info
| Callsign | ANA8476 |
|---|---|
| Flight time | 1h 58m |
| Altitude | 41000 |
| Route | EGOBA2A EGOBA Y697 KARBU DCT LANAT Y51 SAMON Y517 ESKAS Y303 ENTAK/N0479F400 Y30 SWAMP |
| Aircraft | B77L/H-SDE1E2E3FGHIJ2J3J4J5M1RWXY/LB1D1 |
Departure
| Time | 2026-05-08 03:59 |
|---|---|
| Airport | Incheon International Airport (RKSI) |
Arrival
| Time | 2026-05-08 05:57 |
|---|---|
| Airport | Narita International Airport (RJAA) |
| Time | Latitude | Longitude | Altitude | Speed | Heading |
|---|---|---|---|---|---|
| 2026-05-08 03:27 | 37.47651 | 126.46133 | 36 ft | 0 kts | 324° |
| 2026-05-08 03:45 | 37.47646 | 126.46138 | 37 ft | 2 kts | 321° |
| 2026-05-08 03:45 | 37.47633 | 126.46152 | 34 ft | 2 kts | 315° |
| 2026-05-08 03:45 | 37.47622 | 126.46167 | 34 ft | 2 kts | 307° |
| 2026-05-08 03:46 | 37.47613 | 126.46184 | 37 ft | 2 kts | 295° |
| 2026-05-08 03:46 | 37.47607 | 126.46204 | 37 ft | 2 kts | 279° |
| 2026-05-08 03:46 | 37.47606 | 126.46225 | 37 ft | 2 kts | 262° |
| 2026-05-08 03:46 | 37.47610 | 126.46245 | 36 ft | 2 kts | 247° |
| 2026-05-08 03:47 | 37.47617 | 126.46263 | 33 ft | 2 kts | 237° |
| 2026-05-08 03:47 | 37.47621 | 126.46270 | 34 ft | 0 kts | 235° |
| 2026-05-08 03:50 | 37.47609 | 126.46249 | 35 ft | 7 kts | 235° |
| 2026-05-08 03:50 | 37.47577 | 126.46191 | 37 ft | 9 kts | 235° |
| 2026-05-08 03:50 | 37.47537 | 126.46119 | 37 ft | 11 kts | 234° |
| 2026-05-08 03:51 | 37.47492 | 126.46038 | 37 ft | 12 kts | 234° |
| 2026-05-08 03:51 | 37.47444 | 126.45954 | 37 ft | 12 kts | 234° |
| 2026-05-08 03:51 | 37.47395 | 126.45866 | 37 ft | 12 kts | 234° |
| 2026-05-08 03:51 | 37.47344 | 126.45776 | 37 ft | 13 kts | 234° |
| 2026-05-08 03:52 | 37.47292 | 126.45685 | 37 ft | 13 kts | 234° |
| 2026-05-08 03:52 | 37.47239 | 126.45593 | 37 ft | 13 kts | 234° |
| 2026-05-08 03:52 | 37.47187 | 126.45500 | 37 ft | 13 kts | 233° |
| 2026-05-08 03:52 | 37.47108 | 126.45470 | 37 ft | 13 kts | 159° |
| 2026-05-08 03:53 | 37.47028 | 126.45539 | 36 ft | 14 kts | 143° |
| 2026-05-08 03:53 | 37.46944 | 126.45615 | 36 ft | 16 kts | 145° |
| 2026-05-08 03:53 | 37.46852 | 126.45697 | 37 ft | 17 kts | 145° |
| 2026-05-08 03:53 | 37.46753 | 126.45785 | 37 ft | 18 kts | 145° |
| 2026-05-08 03:54 | 37.46647 | 126.45877 | 37 ft | 19 kts | 145° |
| 2026-05-08 03:54 | 37.46535 | 126.45976 | 37 ft | 20 kts | 145° |
| 2026-05-08 03:54 | 37.46423 | 126.46078 | 37 ft | 15 kts | 145° |
| 2026-05-08 03:54 | 37.46344 | 126.46146 | 37 ft | 14 kts | 145° |
| 2026-05-08 03:55 | 37.46258 | 126.46208 | 37 ft | 15 kts | 172° |
| 2026-05-08 03:55 | 37.46180 | 126.46134 | 37 ft | 15 kts | 233° |
| 2026-05-08 03:55 | 37.46120 | 126.46028 | 37 ft | 15 kts | 234° |
| 2026-05-08 03:55 | 37.46060 | 126.45924 | 37 ft | 15 kts | 227° |
| 2026-05-08 03:56 | 37.45967 | 126.45912 | 35 ft | 15 kts | 150° |
| 2026-05-08 03:56 | 37.45875 | 126.45987 | 37 ft | 16 kts | 145° |
| 2026-05-08 03:56 | 37.45786 | 126.46073 | 37 ft | 16 kts | 143° |
| 2026-05-08 03:56 | 37.45693 | 126.46154 | 37 ft | 16 kts | 145° |
| 2026-05-08 03:57 | 37.45600 | 126.46235 | 37 ft | 16 kts | 145° |
| 2026-05-08 03:57 | 37.45510 | 126.46214 | 37 ft | 15 kts | 229° |
| 2026-05-08 03:57 | 37.45457 | 126.46119 | 37 ft | 11 kts | 249° |
| 2026-05-08 03:57 | 37.45483 | 126.46038 | 37 ft | 11 kts | 318° |
| 2026-05-08 03:58 | 37.45495 | 126.46027 | 37 ft | 0 kts | 324° |
| 2026-05-08 03:58 | 37.45540 | 126.45985 | 37 ft | 27 kts | 324° |
| 2026-05-08 03:58 | 37.45902 | 126.45662 | 37 ft | 107 kts | 324° |
| 2026-05-08 03:58 | 37.46709 | 126.44944 | 135 ft | 165 kts | 321° |
| 2026-05-08 03:59 | 37.47625 | 126.44175 | 1153 ft | 155 kts | 324° |
| 2026-05-08 03:59 | 37.48525 | 126.43495 | 2190 ft | 148 kts | 325° |
| 2026-05-08 03:59 | 37.49361 | 126.42715 | 2994 ft | 160 kts | 320° |
| 2026-05-08 03:59 | 37.50349 | 126.41818 | 3444 ft | 193 kts | 324° |
| 2026-05-08 04:00 | 37.51566 | 126.40816 | 3925 ft | 218 kts | 325° |
| 2026-05-08 04:00 | 37.52846 | 126.39762 | 4964 ft | 221 kts | 326° |
| 2026-05-08 04:00 | 37.54122 | 126.38704 | 5977 ft | 222 kts | 325° |
| 2026-05-08 04:00 | 37.55400 | 126.37641 | 7114 ft | 219 kts | 324° |
| 2026-05-08 04:01 | 37.56639 | 126.36484 | 7998 ft | 221 kts | 313° |
| 2026-05-08 04:01 | 37.57450 | 126.34855 | 8914 ft | 224 kts | 299° |
| 2026-05-08 04:01 | 37.57983 | 126.32999 | 9872 ft | 229 kts | 284° |
| 2026-05-08 04:01 | 37.58046 | 126.30953 | 10708 ft | 237 kts | 276° |
| 2026-05-08 04:02 | 37.58015 | 126.28869 | 11624 ft | 238 kts | 276° |
| 2026-05-08 04:02 | 37.57993 | 126.26778 | 12552 ft | 239 kts | 277° |
| 2026-05-08 04:02 | 37.57974 | 126.24676 | 13472 ft | 241 kts | 275° |
| 2026-05-08 04:02 | 37.57493 | 126.22555 | 14185 ft | 267 kts | 252° |
| 2026-05-08 04:03 | 37.56328 | 126.20644 | 15038 ft | 284 kts | 236° |
| 2026-05-08 04:03 | 37.52524 | 126.18382 | 16623 ft | 319 kts | 208° |
| 2026-05-08 04:03 | 37.50394 | 126.17558 | 17432 ft | 321 kts | 209° |
| 2026-05-08 04:04 | 37.48238 | 126.16684 | 18090 ft | 329 kts | 210° |
| 2026-05-08 04:04 | 37.46071 | 126.15782 | 18941 ft | 327 kts | 210° |
| 2026-05-08 04:04 | 37.43917 | 126.14908 | 19762 ft | 328 kts | 206° |
| 2026-05-08 04:04 | 37.41544 | 126.14747 | 20372 ft | 360 kts | 180° |
| 2026-05-08 04:05 | 37.39156 | 126.15958 | 21096 ft | 384 kts | 150° |
| 2026-05-08 04:05 | 37.37230 | 126.18341 | 21856 ft | 393 kts | 132° |
| 2026-05-08 04:05 | 37.35509 | 126.21034 | 22534 ft | 398 kts | 132° |
| 2026-05-08 04:05 | 37.33821 | 126.23804 | 23115 ft | 404 kts | 123° |
| 2026-05-08 04:06 | 37.32728 | 126.27086 | 23686 ft | 412 kts | 102° |
| 2026-05-08 04:06 | 37.32444 | 126.30642 | 24253 ft | 409 kts | 87° |
| 2026-05-08 04:06 | 37.32458 | 126.34237 | 24775 ft | 414 kts | 85° |
| 2026-05-08 04:06 | 37.32501 | 126.37878 | 25313 ft | 420 kts | 85° |
| 2026-05-08 04:07 | 37.32505 | 126.41582 | 25884 ft | 426 kts | 86° |
| 2026-05-08 04:07 | 37.32478 | 126.45321 | 26454 ft | 431 kts | 87° |
| 2026-05-08 04:07 | 37.32437 | 126.49116 | 27025 ft | 437 kts | 87° |
| 2026-05-08 04:07 | 37.32391 | 126.52957 | 27582 ft | 443 kts | 88° |
| 2026-05-08 04:08 | 37.32345 | 126.56851 | 28150 ft | 449 kts | 88° |
| 2026-05-08 04:08 | 37.32298 | 126.60795 | 28725 ft | 454 kts | 88° |
| 2026-05-08 04:08 | 37.32251 | 126.64800 | 29215 ft | 465 kts | 88° |
| 2026-05-08 04:08 | 37.32203 | 126.68946 | 29347 ft | 485 kts | 88° |
| 2026-05-08 04:09 | 37.32152 | 126.73269 | 29497 ft | 505 kts | 88° |
| 2026-05-08 04:09 | 37.32101 | 126.77761 | 29645 ft | 523 kts | 89° |
| 2026-05-08 04:09 | 37.32049 | 126.82343 | 29774 ft | 541 kts | 89° |
| 2026-05-08 04:09 | 37.31992 | 126.87144 | 29888 ft | 557 kts | 89° |
| 2026-05-08 04:10 | 37.31931 | 126.92072 | 30081 ft | 571 kts | 89° |
| 2026-05-08 04:10 | 37.31909 | 126.97073 | 30386 ft | 574 kts | 85° |
| 2026-05-08 04:10 | 37.32522 | 127.02014 | 30807 ft | 570 kts | 69° |
| 2026-05-08 04:10 | 37.34050 | 127.06533 | 31415 ft | 553 kts | 53° |
| 2026-05-08 04:11 | 37.36054 | 127.10639 | 31925 ft | 553 kts | 51° |
| 2026-05-08 04:11 | 37.38082 | 127.14760 | 32433 ft | 556 kts | 52° |
| 2026-05-08 04:11 | 37.40078 | 127.18941 | 32987 ft | 558 kts | 53° |
| 2026-05-08 04:11 | 37.42031 | 127.23161 | 33530 ft | 558 kts | 54° |
| 2026-05-08 04:12 | 37.43953 | 127.27408 | 34039 ft | 560 kts | 55° |
| 2026-05-08 04:12 | 37.45876 | 127.31670 | 34493 ft | 560 kts | 54° |
| 2026-05-08 04:12 | 37.47797 | 127.35932 | 35051 ft | 559 kts | 56° |
| 2026-05-08 04:12 | 37.49381 | 127.40414 | 35490 ft | 567 kts | 71° |
| 2026-05-08 04:13 | 37.50242 | 127.45269 | 35977 ft | 569 kts | 78° |
| 2026-05-08 04:13 | 37.50888 | 127.50182 | 36472 ft | 568 kts | 79° |
| 2026-05-08 04:13 | 37.51526 | 127.55090 | 36935 ft | 567 kts | 78° |
| 2026-05-08 04:13 | 37.52240 | 127.59969 | 37392 ft | 566 kts | 77° |
| 2026-05-08 04:14 | 37.53019 | 127.64825 | 37896 ft | 565 kts | 77° |
| 2026-05-08 04:14 | 37.53815 | 127.69667 | 38378 ft | 563 kts | 77° |
| 2026-05-08 04:14 | 37.54594 | 127.74501 | 38786 ft | 563 kts | 77° |
| 2026-05-08 04:14 | 37.55360 | 127.79331 | 39151 ft | 562 kts | 77° |
| 2026-05-08 04:15 | 37.56116 | 127.84152 | 39530 ft | 560 kts | 77° |
| 2026-05-08 04:15 | 37.56867 | 127.88955 | 39919 ft | 558 kts | 77° |
| 2026-05-08 04:15 | 37.57615 | 127.93745 | 40280 ft | 556 kts | 77° |
| 2026-05-08 04:15 | 37.58361 | 127.98524 | 40607 ft | 555 kts | 77° |
| 2026-05-08 04:16 | 37.59097 | 128.03244 | 40868 ft | 557 kts | 77° |
| 2026-05-08 04:16 | 37.59847 | 128.08054 | 40906 ft | 561 kts | 77° |
| 2026-05-08 04:16 | 37.61340 | 128.17691 | 40905 ft | 558 kts | 78° |
| 2026-05-08 04:17 | 37.62809 | 128.27234 | 40908 ft | 552 kts | 78° |
| 2026-05-08 04:17 | 37.64262 | 128.36731 | 40896 ft | 550 kts | 78° |
| 2026-05-08 04:18 | 37.65710 | 128.46245 | 40913 ft | 555 kts | 78° |
| 2026-05-08 04:18 | 37.67167 | 128.55854 | 40892 ft | 560 kts | 78° |
| 2026-05-08 04:19 | 37.68621 | 128.65551 | 40894 ft | 563 kts | 79° |
| 2026-05-08 04:19 | 37.69051 | 128.70447 | 40876 ft | 563 kts | 91° |
| 2026-05-08 04:19 | 37.68695 | 128.75352 | 40879 ft | 559 kts | 104° |
| 2026-05-08 04:20 | 37.67690 | 128.80060 | 40890 ft | 554 kts | 115° |
| 2026-05-08 04:20 | 37.66043 | 128.84404 | 40883 ft | 543 kts | 127° |
| 2026-05-08 04:20 | 37.62018 | 128.92471 | 40861 ft | 543 kts | 128° |
| 2026-05-08 04:21 | 37.58003 | 129.00551 | 40889 ft | 544 kts | 128° |
| 2026-05-08 04:21 | 37.54068 | 129.08704 | 40867 ft | 544 kts | 127° |
| 2026-05-08 04:22 | 37.50185 | 129.16798 | 40877 ft | 543 kts | 127° |
| 2026-05-08 04:22 | 37.46269 | 129.24911 | 40862 ft | 542 kts | 127° |
| 2026-05-08 04:23 | 37.42353 | 129.32991 | 40872 ft | 540 kts | 128° |
| 2026-05-08 04:23 | 37.38441 | 129.41042 | 40866 ft | 539 kts | 128° |
| 2026-05-08 04:24 | 37.34538 | 129.49060 | 40878 ft | 537 kts | 128° |
| 2026-05-08 04:24 | 37.30634 | 129.57062 | 40877 ft | 536 kts | 128° |
| 2026-05-08 04:25 | 37.26735 | 129.65034 | 40893 ft | 535 kts | 128° |
| 2026-05-08 04:25 | 37.22839 | 129.72982 | 40874 ft | 534 kts | 128° |
| 2026-05-08 04:26 | 37.18947 | 129.80906 | 40889 ft | 533 kts | 128° |
| 2026-05-08 04:26 | 37.15709 | 129.87481 | 40881 ft | 533 kts | 128° |
| 2026-05-08 04:27 | 37.11151 | 129.96704 | 40895 ft | 532 kts | 128° |
| 2026-05-08 04:27 | 37.07909 | 130.03253 | 40888 ft | 532 kts | 128° |
| 2026-05-08 04:28 | 37.04003 | 130.11127 | 40896 ft | 532 kts | 128° |
| 2026-05-08 04:28 | 37.00093 | 130.18993 | 40887 ft | 532 kts | 128° |
| 2026-05-08 04:29 | 36.96179 | 130.26849 | 40894 ft | 532 kts | 128° |
| 2026-05-08 04:29 | 36.92261 | 130.34692 | 40902 ft | 532 kts | 128° |
| 2026-05-08 04:30 | 36.88341 | 130.42524 | 40902 ft | 531 kts | 128° |
| 2026-05-08 04:30 | 36.84420 | 130.50339 | 40889 ft | 531 kts | 128° |
| 2026-05-08 04:31 | 36.80499 | 130.58136 | 40901 ft | 530 kts | 128° |
| 2026-05-08 04:31 | 36.76582 | 130.65909 | 40888 ft | 529 kts | 129° |
| 2026-05-08 04:32 | 36.72691 | 130.73605 | 40900 ft | 527 kts | 129° |
| 2026-05-08 04:32 | 36.68776 | 130.81323 | 40892 ft | 526 kts | 129° |
| 2026-05-08 04:33 | 36.64869 | 130.89013 | 40907 ft | 525 kts | 129° |
| 2026-05-08 04:33 | 36.60959 | 130.96691 | 40897 ft | 525 kts | 129° |
| 2026-05-08 04:34 | 36.57053 | 131.04346 | 40901 ft | 524 kts | 129° |
| 2026-05-08 04:34 | 36.53143 | 131.11991 | 40898 ft | 523 kts | 129° |
| 2026-05-08 04:35 | 36.49240 | 131.19607 | 40900 ft | 522 kts | 129° |
| 2026-05-08 04:35 | 36.45333 | 131.27213 | 40894 ft | 522 kts | 129° |
| 2026-05-08 04:36 | 36.41426 | 131.34803 | 40900 ft | 521 kts | 129° |
| 2026-05-08 04:36 | 36.38181 | 131.42908 | 40910 ft | 533 kts | 112° |
| 2026-05-08 04:37 | 36.36801 | 131.52002 | 40911 ft | 542 kts | 96° |
| 2026-05-08 04:37 | 36.36570 | 131.61359 | 40896 ft | 543 kts | 94° |
| 2026-05-08 04:38 | 36.36406 | 131.70719 | 40905 ft | 542 kts | 95° |
| 2026-05-08 04:38 | 36.36159 | 131.80053 | 40896 ft | 541 kts | 95° |
| 2026-05-08 04:39 | 36.35853 | 131.89373 | 40912 ft | 540 kts | 96° |
| 2026-05-08 04:39 | 36.35531 | 131.98676 | 40897 ft | 539 kts | 96° |
| 2026-05-08 04:40 | 36.35208 | 132.07964 | 40898 ft | 538 kts | 96° |
| 2026-05-08 04:40 | 36.34886 | 132.17167 | 40896 ft | 537 kts | 96° |
| 2026-05-08 04:41 | 36.34555 | 132.26408 | 40898 ft | 536 kts | 96° |
| 2026-05-08 04:41 | 36.34218 | 132.35641 | 40888 ft | 536 kts | 96° |
| 2026-05-08 04:42 | 36.33874 | 132.44854 | 40898 ft | 535 kts | 96° |
| 2026-05-08 04:42 | 36.33522 | 132.54078 | 40886 ft | 535 kts | 96° |
| 2026-05-08 04:43 | 36.33164 | 132.63280 | 40893 ft | 534 kts | 96° |
| 2026-05-08 04:43 | 36.32799 | 132.72486 | 40881 ft | 534 kts | 96° |
| 2026-05-08 04:44 | 36.32430 | 132.81611 | 40881 ft | 533 kts | 96° |
| 2026-05-08 04:44 | 36.32051 | 132.90795 | 40883 ft | 533 kts | 96° |
| 2026-05-08 04:45 | 36.31666 | 132.99972 | 40887 ft | 533 kts | 96° |
| 2026-05-08 04:45 | 36.31273 | 133.09148 | 40875 ft | 533 kts | 96° |
| 2026-05-08 04:46 | 36.30874 | 133.18307 | 40880 ft | 532 kts | 96° |
| 2026-05-08 04:46 | 36.30470 | 133.27457 | 40875 ft | 532 kts | 96° |
| 2026-05-08 04:47 | 36.30056 | 133.36632 | 40875 ft | 532 kts | 96° |
| 2026-05-08 04:47 | 36.29638 | 133.45775 | 40869 ft | 531 kts | 96° |
| 2026-05-08 04:48 | 36.29212 | 133.54915 | 40875 ft | 531 kts | 97° |
| 2026-05-08 04:48 | 36.28783 | 133.63982 | 40861 ft | 530 kts | 97° |
| 2026-05-08 04:49 | 36.28344 | 133.73156 | 40865 ft | 529 kts | 97° |
| 2026-05-08 04:49 | 36.27895 | 133.82194 | 40855 ft | 529 kts | 97° |
| 2026-05-08 04:50 | 36.27423 | 133.91278 | 40863 ft | 528 kts | 97° |
| 2026-05-08 04:50 | 36.26947 | 134.00357 | 40854 ft | 528 kts | 97° |
| 2026-05-08 04:51 | 36.26467 | 134.09427 | 40857 ft | 527 kts | 97° |
| 2026-05-08 04:51 | 36.25994 | 134.18491 | 40850 ft | 527 kts | 97° |
| 2026-05-08 04:52 | 36.25523 | 134.27536 | 40859 ft | 526 kts | 97° |
| 2026-05-08 04:52 | 36.25043 | 134.36579 | 40842 ft | 526 kts | 97° |
| 2026-05-08 04:53 | 36.24581 | 134.45629 | 40849 ft | 527 kts | 94° |
| 2026-05-08 04:53 | 36.24984 | 134.54702 | 40847 ft | 530 kts | 83° |
| 2026-05-08 04:54 | 36.26429 | 134.63665 | 40848 ft | 531 kts | 79° |
| 2026-05-08 04:54 | 36.28011 | 134.72600 | 40836 ft | 531 kts | 79° |
| 2026-05-08 04:55 | 36.29552 | 134.81541 | 40843 ft | 530 kts | 79° |
| 2026-05-08 04:55 | 36.31038 | 134.90434 | 40832 ft | 530 kts | 79° |
| 2026-05-08 04:56 | 36.32516 | 134.99394 | 40845 ft | 530 kts | 80° |
| 2026-05-08 04:56 | 36.33988 | 135.08348 | 40833 ft | 530 kts | 80° |
| 2026-05-08 04:57 | 36.35454 | 135.17298 | 40829 ft | 529 kts | 80° |
| 2026-05-08 04:57 | 36.36915 | 135.26248 | 40826 ft | 529 kts | 80° |
| 2026-05-08 04:58 | 36.38367 | 135.35192 | 40834 ft | 529 kts | 80° |
| 2026-05-08 04:58 | 36.39813 | 135.44138 | 40814 ft | 528 kts | 80° |
| 2026-05-08 04:59 | 36.41248 | 135.53069 | 40824 ft | 528 kts | 80° |
| 2026-05-08 04:59 | 36.42675 | 135.61994 | 40816 ft | 527 kts | 80° |
| 2026-05-08 05:00 | 36.44096 | 135.70922 | 40825 ft | 526 kts | 80° |
| 2026-05-08 05:00 | 36.45508 | 135.79838 | 40811 ft | 526 kts | 80° |
| 2026-05-08 05:01 | 36.46911 | 135.88748 | 40819 ft | 525 kts | 80° |
| 2026-05-08 05:01 | 36.48307 | 135.97652 | 40815 ft | 525 kts | 80° |
| 2026-05-08 05:02 | 36.49695 | 136.06553 | 40817 ft | 524 kts | 80° |
| 2026-05-08 05:02 | 36.51074 | 136.15441 | 40807 ft | 524 kts | 80° |
| 2026-05-08 05:03 | 36.52446 | 136.24335 | 40808 ft | 523 kts | 80° |
| 2026-05-08 05:03 | 36.53810 | 136.33214 | 40788 ft | 523 kts | 80° |
| 2026-05-08 05:04 | 36.55158 | 136.42040 | 40799 ft | 523 kts | 80° |
| 2026-05-08 05:04 | 36.56507 | 136.50924 | 40820 ft | 523 kts | 80° |
| 2026-05-08 05:05 | 36.57852 | 136.59817 | 40808 ft | 523 kts | 80° |
| 2026-05-08 05:05 | 36.59190 | 136.68720 | 40824 ft | 524 kts | 81° |
| 2026-05-08 05:06 | 36.60523 | 136.77634 | 40811 ft | 524 kts | 80° |
| 2026-05-08 05:06 | 36.61850 | 136.86546 | 40810 ft | 524 kts | 81° |
| 2026-05-08 05:07 | 36.63170 | 136.95466 | 40783 ft | 524 kts | 81° |
| 2026-05-08 05:07 | 36.64463 | 137.04401 | 40787 ft | 524 kts | 81° |
| 2026-05-08 05:08 | 36.65734 | 137.13342 | 40774 ft | 524 kts | 81° |
| 2026-05-08 05:08 | 36.67001 | 137.22283 | 40785 ft | 524 kts | 81° |
| 2026-05-08 05:09 | 36.68266 | 137.31234 | 40778 ft | 525 kts | 81° |
| 2026-05-08 05:09 | 36.69525 | 137.40192 | 40798 ft | 525 kts | 81° |
| 2026-05-08 05:10 | 36.71401 | 137.53643 | 40805 ft | 525 kts | 81° |
| 2026-05-08 05:11 | 36.72646 | 137.62618 | 40820 ft | 525 kts | 81° |
| 2026-05-08 05:11 | 36.73872 | 137.71521 | 40811 ft | 526 kts | 81° |
| 2026-05-08 05:12 | 36.75106 | 137.80512 | 40808 ft | 527 kts | 82° |
| 2026-05-08 05:12 | 36.76333 | 137.89520 | 40817 ft | 526 kts | 81° |
| 2026-05-08 05:13 | 36.77551 | 137.98527 | 40809 ft | 528 kts | 82° |
| 2026-05-08 05:13 | 36.78768 | 138.07566 | 40816 ft | 528 kts | 82° |
| 2026-05-08 05:14 | 36.80002 | 138.16612 | 40804 ft | 529 kts | 81° |
| 2026-05-08 05:14 | 36.81258 | 138.25652 | 40811 ft | 529 kts | 82° |
| 2026-05-08 05:15 | 36.82504 | 138.34706 | 40816 ft | 529 kts | 82° |
| 2026-05-08 05:15 | 36.83731 | 138.43704 | 40815 ft | 529 kts | 82° |
| 2026-05-08 05:16 | 36.84955 | 138.52757 | 40807 ft | 528 kts | 82° |
| 2026-05-08 05:16 | 36.86152 | 138.61799 | 40828 ft | 528 kts | 82° |
| 2026-05-08 05:17 | 36.87340 | 138.70836 | 40815 ft | 527 kts | 82° |
| 2026-05-08 05:17 | 36.88522 | 138.79858 | 40826 ft | 526 kts | 82° |
| 2026-05-08 05:18 | 36.89697 | 138.88879 | 40835 ft | 527 kts | 82° |
| 2026-05-08 05:18 | 36.90669 | 138.96384 | 40806 ft | 527 kts | 83° |
| 2026-05-08 05:19 | 36.91834 | 139.05419 | 40819 ft | 528 kts | 83° |
| 2026-05-08 05:19 | 36.92419 | 139.09956 | 41094 ft | 530 kts | 84° |
| 2026-05-08 05:19 | 36.93015 | 139.14552 | 40971 ft | 540 kts | 84° |
| 2026-05-08 05:20 | 36.94235 | 139.23938 | 40881 ft | 554 kts | 84° |
| 2026-05-08 05:20 | 36.95477 | 139.33497 | 40801 ft | 555 kts | 84° |
| 2026-05-08 05:21 | 36.96695 | 139.42964 | 40801 ft | 550 kts | 84° |
| 2026-05-08 05:21 | 36.97897 | 139.52415 | 40795 ft | 550 kts | 84° |
| 2026-05-08 05:22 | 36.99079 | 139.61867 | 40793 ft | 550 kts | 84° |
| 2026-05-08 05:22 | 37.00252 | 139.71317 | 40793 ft | 550 kts | 84° |
| 2026-05-08 05:23 | 37.01413 | 139.80715 | 40773 ft | 551 kts | 85° |
| 2026-05-08 05:23 | 37.02570 | 139.90219 | 40215 ft | 559 kts | 85° |
| 2026-05-08 05:23 | 37.03153 | 139.95037 | 39549 ft | 559 kts | 85° |
| 2026-05-08 05:24 | 37.03734 | 139.99844 | 38885 ft | 558 kts | 85° |
| 2026-05-08 05:24 | 37.04322 | 140.04636 | 38133 ft | 558 kts | 85° |
| 2026-05-08 05:24 | 37.04928 | 140.09437 | 37319 ft | 557 kts | 84° |
| 2026-05-08 05:24 | 37.05536 | 140.14214 | 36579 ft | 555 kts | 84° |
| 2026-05-08 05:25 | 37.06138 | 140.18976 | 35798 ft | 554 kts | 85° |
| 2026-05-08 05:25 | 37.06734 | 140.23742 | 34955 ft | 555 kts | 85° |
| 2026-05-08 05:25 | 37.07320 | 140.28528 | 34033 ft | 557 kts | 85° |
| 2026-05-08 05:25 | 37.07893 | 140.33337 | 32992 ft | 560 kts | 85° |
| 2026-05-08 05:26 | 37.08461 | 140.38162 | 31940 ft | 561 kts | 85° |
| 2026-05-08 05:26 | 37.09032 | 140.42995 | 31162 ft | 558 kts | 85° |
| 2026-05-08 05:26 | 37.09598 | 140.47769 | 30560 ft | 551 kts | 85° |
| 2026-05-08 05:26 | 37.10119 | 140.52489 | 29938 ft | 540 kts | 90° |
| 2026-05-08 05:27 | 37.10020 | 140.57105 | 29267 ft | 523 kts | 105° |
| 2026-05-08 05:27 | 37.09148 | 140.61444 | 28596 ft | 506 kts | 117° |
| 2026-05-08 05:27 | 37.07737 | 140.65395 | 27884 ft | 489 kts | 128° |
| 2026-05-08 05:27 | 37.05840 | 140.68789 | 27333 ft | 468 kts | 137° |
| 2026-05-08 05:28 | 37.03847 | 140.71984 | 26727 ft | 458 kts | 139° |
| 2026-05-08 05:28 | 37.01587 | 140.74611 | 26142 ft | 431 kts | 157° |
| 2026-05-08 05:28 | 36.98978 | 140.76184 | 25636 ft | 405 kts | 172° |
| 2026-05-08 05:28 | 36.96271 | 140.76891 | 25007 ft | 392 kts | 183° |
| 2026-05-08 05:29 | 36.93588 | 140.77025 | 24367 ft | 381 kts | 192° |
| 2026-05-08 05:29 | 36.91051 | 140.76436 | 23731 ft | 363 kts | 204° |
| 2026-05-08 05:29 | 36.88651 | 140.75481 | 23105 ft | 362 kts | 205° |
| 2026-05-08 05:29 | 36.86261 | 140.74522 | 22440 ft | 360 kts | 204° |
| 2026-05-08 05:30 | 36.83878 | 140.73576 | 21825 ft | 358 kts | 204° |
| 2026-05-08 05:30 | 36.81507 | 140.72648 | 21237 ft | 356 kts | 204° |
| 2026-05-08 05:30 | 36.79146 | 140.71732 | 20653 ft | 354 kts | 203° |
| 2026-05-08 05:30 | 36.76801 | 140.70828 | 20072 ft | 352 kts | 203° |
| 2026-05-08 05:31 | 36.74463 | 140.69932 | 19509 ft | 351 kts | 203° |
| 2026-05-08 05:31 | 36.72133 | 140.69040 | 18935 ft | 350 kts | 202° |
| 2026-05-08 05:31 | 36.69809 | 140.68152 | 18359 ft | 349 kts | 202° |
| 2026-05-08 05:31 | 36.67484 | 140.67265 | 17735 ft | 349 kts | 202° |
| 2026-05-08 05:32 | 36.65169 | 140.66382 | 17114 ft | 347 kts | 202° |
| 2026-05-08 05:32 | 36.62869 | 140.65506 | 16530 ft | 345 kts | 202° |
| 2026-05-08 05:32 | 36.60586 | 140.64636 | 15964 ft | 342 kts | 202° |
| 2026-05-08 05:32 | 36.58317 | 140.63773 | 15410 ft | 341 kts | 201° |
| 2026-05-08 05:33 | 36.56055 | 140.62914 | 14982 ft | 337 kts | 201° |
| 2026-05-08 05:33 | 36.53798 | 140.62054 | 14813 ft | 341 kts | 201° |
| 2026-05-08 05:33 | 36.51529 | 140.61189 | 14564 ft | 339 kts | 201° |
| 2026-05-08 05:33 | 36.49291 | 140.60338 | 14398 ft | 333 kts | 201° |
| 2026-05-08 05:34 | 36.47082 | 140.59497 | 14266 ft | 331 kts | 201° |
| 2026-05-08 05:34 | 36.44875 | 140.58655 | 14179 ft | 333 kts | 201° |
| 2026-05-08 05:34 | 36.42660 | 140.57810 | 14080 ft | 334 kts | 201° |
| 2026-05-08 05:34 | 36.40437 | 140.56965 | 13971 ft | 335 kts | 201° |
| 2026-05-08 05:35 | 36.38206 | 140.56117 | 13855 ft | 336 kts | 201° |
| 2026-05-08 05:35 | 36.35972 | 140.55304 | 13743 ft | 332 kts | 197° |
| 2026-05-08 05:35 | 36.33627 | 140.55192 | 13612 ft | 346 kts | 179° |
| 2026-05-08 05:35 | 36.31273 | 140.56022 | 13522 ft | 358 kts | 165° |
| 2026-05-08 05:36 | 36.29100 | 140.57613 | 13370 ft | 373 kts | 146° |
| 2026-05-08 05:36 | 36.27311 | 140.59960 | 13251 ft | 376 kts | 139° |
| 2026-05-08 05:36 | 36.25571 | 140.62391 | 13129 ft | 378 kts | 139° |
| 2026-05-08 05:36 | 36.23804 | 140.64786 | 13120 ft | 375 kts | 140° |
| 2026-05-08 05:37 | 36.22029 | 140.67152 | 13075 ft | 374 kts | 140° |
| 2026-05-08 05:37 | 36.20250 | 140.69510 | 12966 ft | 374 kts | 140° |
| 2026-05-08 05:37 | 36.18476 | 140.71860 | 12680 ft | 373 kts | 140° |
| 2026-05-08 05:37 | 36.16705 | 140.74206 | 12404 ft | 372 kts | 140° |
| 2026-05-08 05:38 | 36.14942 | 140.76540 | 12141 ft | 371 kts | 140° |
| 2026-05-08 05:38 | 36.13182 | 140.78869 | 11906 ft | 369 kts | 140° |
| 2026-05-08 05:38 | 36.11435 | 140.81183 | 11674 ft | 368 kts | 140° |
| 2026-05-08 05:38 | 36.09692 | 140.83502 | 11424 ft | 367 kts | 140° |
| 2026-05-08 05:39 | 36.07956 | 140.85814 | 11189 ft | 366 kts | 139° |
| 2026-05-08 05:39 | 36.06223 | 140.88093 | 10937 ft | 357 kts | 143° |
| 2026-05-08 05:39 | 36.04191 | 140.89660 | 10613 ft | 330 kts | 169° |
| 2026-05-08 05:39 | 36.02072 | 140.89944 | 10437 ft | 289 kts | 191° |
| 2026-05-08 05:40 | 36.00214 | 140.89417 | 10255 ft | 263 kts | 205° |
| 2026-05-08 05:40 | 35.98615 | 140.88473 | 9923 ft | 249 kts | 215° |
| 2026-05-08 05:40 | 35.97259 | 140.87163 | 9633 ft | 249 kts | 226° |
| 2026-05-08 05:40 | 35.96183 | 140.85547 | 9356 ft | 240 kts | 237° |
| 2026-05-08 05:41 | 35.95407 | 140.83736 | 8849 ft | 239 kts | 245° |
| 2026-05-08 05:41 | 35.94844 | 140.81808 | 8297 ft | 240 kts | 253° |
| 2026-05-08 05:41 | 35.94729 | 140.79753 | 7758 ft | 246 kts | 272° |
| 2026-05-08 05:41 | 35.95027 | 140.77665 | 7248 ft | 247 kts | 275° |
| 2026-05-08 05:42 | 35.95342 | 140.75582 | 6772 ft | 247 kts | 275° |
| 2026-05-08 05:42 | 35.95654 | 140.73500 | 6312 ft | 246 kts | 275° |
| 2026-05-08 05:42 | 35.95961 | 140.71428 | 6086 ft | 250 kts | 275° |
| 2026-05-08 05:42 | 35.96269 | 140.69336 | 5974 ft | 244 kts | 275° |
| 2026-05-08 05:43 | 35.96568 | 140.67292 | 5975 ft | 241 kts | 275° |
| 2026-05-08 05:43 | 35.96864 | 140.65238 | 5976 ft | 246 kts | 275° |
| 2026-05-08 05:43 | 35.97165 | 140.63143 | 5967 ft | 249 kts | 275° |
| 2026-05-08 05:43 | 35.97472 | 140.61011 | 5964 ft | 249 kts | 275° |
| 2026-05-08 05:44 | 35.97774 | 140.58908 | 5963 ft | 249 kts | 275° |
| 2026-05-08 05:44 | 35.98074 | 140.56812 | 5968 ft | 248 kts | 275° |
| 2026-05-08 05:44 | 35.98475 | 140.54773 | 5948 ft | 249 kts | 289° |
| 2026-05-08 05:44 | 35.99450 | 140.52952 | 5977 ft | 260 kts | 301° |
| 2026-05-08 05:45 | 36.00556 | 140.51149 | 5973 ft | 264 kts | 301° |
| 2026-05-08 05:45 | 36.01661 | 140.49342 | 5968 ft | 263 kts | 301° |
| 2026-05-08 05:45 | 36.02759 | 140.47541 | 5957 ft | 262 kts | 301° |
| 2026-05-08 05:45 | 36.03851 | 140.45746 | 5952 ft | 260 kts | 301° |
| 2026-05-08 05:46 | 36.04932 | 140.43964 | 5957 ft | 258 kts | 301° |
| 2026-05-08 05:46 | 36.06003 | 140.42192 | 5955 ft | 258 kts | 301° |
| 2026-05-08 05:46 | 36.07076 | 140.40418 | 5953 ft | 258 kts | 301° |
| 2026-05-08 05:46 | 36.08148 | 140.38641 | 5960 ft | 258 kts | 301° |
| 2026-05-08 05:47 | 36.09223 | 140.36858 | 5970 ft | 260 kts | 301° |
| 2026-05-08 05:47 | 36.10306 | 140.35059 | 5976 ft | 262 kts | 301° |
| 2026-05-08 05:47 | 36.11394 | 140.33234 | 5979 ft | 262 kts | 297° |
| 2026-05-08 05:47 | 36.12013 | 140.31174 | 5938 ft | 256 kts | 273° |
| 2026-05-08 05:48 | 36.12021 | 140.28999 | 5750 ft | 252 kts | 265° |
| 2026-05-08 05:48 | 36.11990 | 140.26837 | 5583 ft | 250 kts | 265° |
| 2026-05-08 05:48 | 36.11969 | 140.24694 | 5455 ft | 248 kts | 266° |
| 2026-05-08 05:48 | 36.11950 | 140.22554 | 5311 ft | 249 kts | 266° |
| 2026-05-08 05:49 | 36.11683 | 140.20502 | 5158 ft | 241 kts | 244° |
| 2026-05-08 05:49 | 36.10662 | 140.18865 | 5049 ft | 245 kts | 218° |
| 2026-05-08 05:49 | 36.09163 | 140.17845 | 4915 ft | 249 kts | 199° |
| 2026-05-08 05:49 | 36.07460 | 140.17577 | 4774 ft | 248 kts | 183° |
| 2026-05-08 05:50 | 36.05728 | 140.17607 | 4630 ft | 249 kts | 181° |
| 2026-05-08 05:50 | 36.04016 | 140.17765 | 4466 ft | 246 kts | 169° |
| 2026-05-08 05:50 | 36.02488 | 140.18636 | 4336 ft | 237 kts | 154° |
| 2026-05-08 05:50 | 36.01125 | 140.19639 | 4195 ft | 226 kts | 155° |
| 2026-05-08 05:51 | 35.99805 | 140.20604 | 4068 ft | 214 kts | 155° |
| 2026-05-08 05:51 | 35.98568 | 140.21501 | 3980 ft | 196 kts | 156° |
| 2026-05-08 05:51 | 35.97435 | 140.22312 | 3970 ft | 188 kts | 156° |
| 2026-05-08 05:51 | 35.96240 | 140.23164 | 3978 ft | 205 kts | 156° |
| 2026-05-08 05:52 | 35.95010 | 140.24058 | 3969 ft | 205 kts | 156° |
| 2026-05-08 05:52 | 35.93783 | 140.24952 | 3735 ft | 204 kts | 156° |
| 2026-05-08 05:52 | 35.92590 | 140.25824 | 3511 ft | 194 kts | 156° |
| 2026-05-08 05:52 | 35.91458 | 140.26652 | 3272 ft | 187 kts | 156° |
| 2026-05-08 05:53 | 35.90372 | 140.27441 | 3051 ft | 175 kts | 158° |
| 2026-05-08 05:53 | 35.89363 | 140.28176 | 2800 ft | 162 kts | 158° |
| 2026-05-08 05:53 | 35.88427 | 140.28857 | 2579 ft | 154 kts | 159° |
| 2026-05-08 05:53 | 35.87497 | 140.29529 | 2394 ft | 156 kts | 159° |
| 2026-05-08 05:54 | 35.86569 | 140.30204 | 2189 ft | 154 kts | 159° |
| 2026-05-08 05:54 | 35.85664 | 140.30864 | 2023 ft | 148 kts | 159° |
| 2026-05-08 05:54 | 35.84799 | 140.31492 | 1814 ft | 140 kts | 159° |
| 2026-05-08 05:54 | 35.83986 | 140.32083 | 1631 ft | 133 kts | 160° |
| 2026-05-08 05:55 | 35.83172 | 140.32662 | 1495 ft | 137 kts | 158° |
| 2026-05-08 05:55 | 35.82343 | 140.33240 | 1275 ft | 139 kts | 156° |
| 2026-05-08 05:55 | 35.81517 | 140.33890 | 1046 ft | 141 kts | 155° |
| 2026-05-08 05:55 | 35.80669 | 140.34500 | 904 ft | 142 kts | 159° |
| 2026-05-08 05:56 | 35.79808 | 140.35107 | 663 ft | 145 kts | 155° |
| 2026-05-08 05:56 | 35.78951 | 140.35747 | 429 ft | 145 kts | 155° |
| 2026-05-08 05:56 | 35.78110 | 140.36354 | 315 ft | 140 kts | 155° |
| 2026-05-08 05:56 | 35.77266 | 140.36948 | 168 ft | 140 kts | 150° |
| 2026-05-08 05:57 | 35.76497 | 140.37509 | 149 ft | 116 kts | 150° |
| 2026-05-08 05:57 | 35.75906 | 140.37937 | 151 ft | 81 kts | 149° |
| 2026-05-08 05:57 | 35.75584 | 140.38197 | 151 ft | 41 kts | 134° |
| 2026-05-08 05:57 | 35.75481 | 140.38380 | 150 ft | 13 kts | 117° |
| 2026-05-08 05:58 | 35.75466 | 140.38427 | 149 ft | 1 kts | 102° |
| 2026-05-08 05:58 | 35.75465 | 140.38432 | 149 ft | 0 kts | 101° |
| 2026-05-08 05:58 | 35.75466 | 140.38443 | 149 ft | 4 kts | 84° |
| 2026-05-08 05:59 | 35.75488 | 140.38468 | 149 ft | 5 kts | 21° |
| 2026-05-08 05:59 | 35.75536 | 140.38459 | 149 ft | 10 kts | 335° |
| 2026-05-08 05:59 | 35.75605 | 140.38411 | 149 ft | 12 kts | 328° |
| 2026-05-08 05:59 | 35.75683 | 140.38354 | 149 ft | 14 kts | 330° |
| 2026-05-08 06:00 | 35.75771 | 140.38291 | 149 ft | 15 kts | 330° |
| 2026-05-08 06:00 | 35.75868 | 140.38222 | 149 ft | 17 kts | 329° |
| 2026-05-08 06:00 | 35.75973 | 140.38145 | 149 ft | 18 kts | 330° |
| 2026-05-08 06:00 | 35.76086 | 140.38065 | 148 ft | 19 kts | 329° |
| 2026-05-08 06:01 | 35.76206 | 140.37978 | 148 ft | 21 kts | 329° |
| 2026-05-08 06:01 | 35.76332 | 140.37886 | 148 ft | 22 kts | 329° |
| 2026-05-08 06:01 | 35.76463 | 140.37790 | 148 ft | 22 kts | 331° |
| 2026-05-08 06:01 | 35.76596 | 140.37695 | 148 ft | 22 kts | 329° |
| 2026-05-08 06:02 | 35.76733 | 140.37597 | 148 ft | 23 kts | 329° |
| 2026-05-08 06:02 | 35.76870 | 140.37497 | 148 ft | 23 kts | 329° |
| 2026-05-08 06:02 | 35.76995 | 140.37407 | 148 ft | 16 kts | 332° |
| 2026-05-08 06:02 | 35.77101 | 140.37443 | 148 ft | 17 kts | 0° |
| 2026-05-08 06:03 | 35.77200 | 140.37388 | 148 ft | 13 kts | 329° |
| 2026-05-08 06:03 | 35.77252 | 140.37388 | 148 ft | 8 kts | 44° |
| 2026-05-08 06:03 | 35.77284 | 140.37450 | 148 ft | 9 kts | 59° |
| 2026-05-08 06:03 | 35.77288 | 140.37457 | 148 ft | 0 kts | 59° |